Aviation Digital Data Service (ADDS)

Output produced by METARs form (1351 UTC 27 November 2021)
found at http://www.aviationweather.gov/metar/data/
 
METAR text: LFMH 271330Z AUTO 28009KT 250V310 CAVOK 07/M04 Q0995
Conditions at: LFMH (ST ETIENNE/BOUTH, FR) observed 1330 UTC 27 November 2021
Temperature: 7.0°C (45°F)
Dewpoint: -4.0°C (25°F) [RH = 45%]
Pressure (altimeter): 29.38 inches Hg (995.0 mb)
Winds: from the W (280 degrees) at 10 MPH (9 knots; 4.6 m/s)
Visibility: 6 or more miles (10+ km)
Ceiling: ceiling and visibility are OK
Clouds: unknown
Weather: no significant weather observed at this time